Fort Chipewyan, Canada
Current Conditions -  °F | °C
As of 9:00 AM on Thursday 27 Nov 2014 (Local Time) from CYPY Reporting Station
Light Snow Light Snow  
Wind Chill: -26°   Ceiling: 2100
Heat Index: -9°   Visibility: 9mi
Dew Point: -13°   Wind: 8mph
Humidity: 84%   Direction: 280°W
Pressure: 30.44"   Gusts: NA
Location:  58.71°N, 111.15°W
Report Text: CYPY 271600Z AUTO 28007KT 9SM -SN OVC021 M23/M25 A3044 RMK SLP338
Loading
Personal Weather Stations






























Interactive Weather Map New forecast layout! Learn more

10-Day Weather Forecast

Advertisements
Track Severe Weather on mobile